Tiempo atmosférico en la estación meteorológica de Eivissa Aeropuerto, Illes Balears (6 m.)



Fecha
DESCASC
Temp. máxima en grados centígrados (hora)
DESCASC
Temp. mínima en grados centígrados (hora)
DESCASC
Temp. media en grados centígrados
DESCASC
Racha de viento máxima en m/sg (hora)
DESCASC
Velocidad máxima media en intervalos de 10 minutos(hora)
DESCASC
Precipitaciones diarias en mm
DESCASC
Precipitaciones de 00:00 a 06:00 en mm
DESCASC
Precipitaciones de 06:00 a 12:00 en mm
DESCASC
Precipitaciones de 12:00 a 18:00 en mm
DESCASC
Precipitaciones de 18:00 a 24:00 en mm
DESCASC

Gráficas

Temp. máximas Temp. mínimas Temp. medias Precipitaciones Rachas de viento máximas Velocidades máximas media en intervalos de 10 minutos

Datos horarios

Fecha y hora oficial Temperatura (ºC) Velocidad del viento (km/h) Dirección del viento Racha (km/h) Dirección de racha Precipitación (mm) Presión (hPa) Tendencia (hPa) Humedad (%)
2019-08-17 23:00:00 26.2 10 Este 22 Este 0 1011.9 0.5 83
2019-08-17 22:00:00 26.3 9 Este 18 Norte 0 1011.6 -0.4 80
2019-08-17 21:00:00 26.6 12 Este 18 Este 0 1011.4 -1.1 79
2019-08-17 20:00:00 27.2 14 Este 24 Este 0 1011.4 -1.6 77
2019-08-17 19:00:00 28.1 14 Este 26 Este 0 1012 -1.4 73
2019-08-17 18:00:00 29.3 15 Este 28 Este 0 1012.5 -1.5 66
2019-08-17 17:00:00 29.2 18 Este 26 Este 0 1013 -1.4 68
2019-08-17 16:00:00 29.4 16 Este 26 Sudeste 0 1013.4 -1.2 67
2019-08-17 15:00:00 29.4 15 Este 26 Este 0 1014 -1 67
2019-08-17 14:00:00 29.4 18 Este 26 Este 0 1014.4 -0.6 66
2019-08-17 13:00:00 28.7 16 Este 24 Norte 0 1014.6 0 69
2019-08-17 12:00:00 28.9 14 Este 24 Este 0 1015 0.7 67
2019-08-17 11:00:00 28.4 13 Este 21 Este 0 1015 1.1 69
2019-08-17 10:00:00 27.1 12 Nordeste 17 Este 0 1014.6 0.8 74
2019-08-17 09:00:00 26.5 10 Este 15 Este 0 1014.3 0.7 78
2019-08-17 08:00:00 23.3 5 Norte 13 Norte 0 1013.9 0.1 86
2019-08-17 07:00:00 22 6 Norte 11 Norte 0 1013.8 -0.4 87
2019-08-17 06:00:00 22.1 8 Norte 11 Norte 0 1013.6 -1 87
2019-08-17 05:00:00 22.2 9 Norte 11 Norte 0 1013.8 -1 86
2019-08-17 04:00:00 22.2 9 Norte -- -- 0 1014.2 -0.9 85
2019-08-17 03:00:00 22.6 5 Norte 9 Norte 0 1014.6 -0.5 83
2019-08-17 02:00:00 23.5 4 Norte 11 Noroeste 0 1014.8 -0.2 79
2019-08-17 01:00:00 24.6 4 Oeste 9 Oeste 0 1015.1 0.4 77
2019-08-17 00:00:00 24.6 0 Calma 9 Sudeste 0 1015.1 0.8 77
2019-08-16 23:00:00 25.2 4 Sudeste 17 Sudeste 0 1015 0.9 77
2019-08-16 22:00:00 25.8 11 Sudeste 21 Sudeste 0 1014.7 0.5 75
2019-08-16 21:00:00 26.2 10 Sudeste 22 Sudeste 0 1014.3 -0.3 71
2019-08-16 20:00:00 27.1 14 Sudeste 24 Este 0 1014.1 -1 68
2019-08-16 19:00:00 27.8 16 Este 26 Este 0 1014.2 -1.5 66
2019-08-16 18:00:00 28.3 18 Nordeste 24 Norte 0 1014.6 -1.7 65
2019-08-16 17:00:00 28.6 16 Este 26 Sudeste 0 1015.1 -1.5 63
2019-08-16 16:00:00 28.8 17 Este 26 Sudeste 0 1015.7 -1.2 62
2019-08-16 15:00:00 28.8 17 Este 24 Este 0 1016.3 -1.1 62
2019-08-16 14:00:00 29.6 17 Este 28 Este 0 1016.6 -0.5 59
2019-08-16 13:00:00 29 16 Este 30 Este 0 1016.9 0.2 61
2019-08-16 12:00:00 28.5 16 Nordeste 24 Este 0 1017.4 0.9 63
2019-08-16 11:00:00 27.9 15 Este 24 Este 0 1017.1 0.7 64
2019-08-16 10:00:00 27.2 15 Este 24 Este 0 1016.7 0.7 67
2019-08-16 09:00:00 26.3 15 Este 21 Este 0 1016.5 0.7 70
2019-08-16 08:00:00 25.3 10 Este 17 Este 0 1016.4 0.6 76
2019-08-16 07:00:00 24.7 11 Este 18 Este 0 1016 -0.1 78
2019-08-16 06:00:00 24.7 12 Este 21 Norte 0 1015.8 -0.5 77
2019-08-16 05:00:00 24.2 10 Este 17 Este 0 1015.8 -0.9 78
2019-08-16 04:00:00 22.7 8 Norte 13 Norte 0 1016.1 -0.7 80
2019-08-16 03:00:00 22.8 9 Norte 13 Norte 0 1016.3 -0.2 77
2019-08-16 02:00:00 23.1 9 Norte 11 Norte 0 1016.7 0.1 77
2019-08-16 01:00:00 24.3 3 Norte 11 Sudeste 0 1016.8 0.7 73
2019-08-16 00:00:00 24.9 6 Sudeste 15 Sudeste 0 1016.5 0.8 72
2019-08-15 23:00:00 25.5 10 Sudeste 18 Sudeste 0 1016.6 1.5 68
2019-08-15 22:00:00 25.6 12 Sudeste 18 Sudeste 0 1016.1 0.9 68
2019-08-15 21:00:00 26.1 10 Este 18 Este 0 1015.7 0.3 67
2019-08-15 20:00:00 27.4 14 Sudeste 21 Sudeste 0 1015.1 -0.8 62
2019-08-15 19:00:00 28.4 14 Sudeste 26 Sudeste 0 1015.2 -1.1 54
2019-08-15 18:00:00 28.9 15 Sudeste 26 Sudeste 0 1015.4 -1.2 53
2019-08-15 17:00:00 29.3 15 Sudeste 28 Sudeste 0 1015.9 -1 53
2019-08-15 16:00:00 29.3 20 Sudeste 32 Sudeste 0 1016.3 -0.8 56
2019-08-15 15:00:00 29.7 19 Este 30 Este 0 1016.6 -0.8 54
2019-08-15 14:00:00 29.2 19 Este 28 Este 0 1016.9 -0.3 55
2019-08-15 13:00:00 29.4 16 Este 26 Sudeste 0 1017.1 0.1 54
2019-08-15 12:00:00 29.4 14 Sudeste 30 Sudeste 0 1017.4 0.6 53
2019-08-15 11:00:00 28.9 9 Sudeste 21 Sudeste 0 1017.2 0.7 52
2019-08-15 10:00:00 27.5 10 Sur 17 Sudeste 0 1017 0.8 58
2019-08-15 09:00:00 26 5 Sur 8 Sur 0 1016.8 1 72
2019-08-15 08:00:00 22.2 0 Calma 15 Noroeste 0 1016.5 0.7 86
2019-08-15 07:00:00 21.4 6 Noroeste 11 Noroeste 0 1016.2 0.1 87
2019-08-15 06:00:00 21.3 8 Norte 9 Norte 0 1015.8 -0.3 86
2019-08-15 05:00:00 22 4 Norte 5 Noroeste 0 1015.8 -0.7 84
2019-08-15 04:00:00 23.2 2 Sur 13 Sur 0 1016.1 -0.6 82
2019-08-15 03:00:00 24.1 7 Sur 13 Sur 0 1016.1 -0.5 80
2019-08-15 02:00:00 24.2 9 Sur 15 Sur 0 1016.5 0 79
2019-08-15 01:00:00 23.8 6 Sur 11 Sur 0 1016.7 0.5 79
2019-08-15 00:00:00 24.1 2 Sudoeste 13 Sur 0 1016.6 -- 78
2019-08-14 23:00:00 24.7 8 Sur 17 Sur 0 1016.5 1 75
2019-08-14 22:00:00 25.2 12 Sur 18 Sur 0 1016.2 0.6 72
2019-08-14 21:00:00 26 12 Sur 21 Sudoeste 0 -- -- 67
2019-08-14 20:00:00 27.2 12 Sur 24 Sudoeste 0 1015.5 -0.8 57
2019-08-14 19:00:00 27.5 16 Sudoeste 24 Sudoeste 0 1015.6 -1 58
2019-08-14 18:00:00 28.3 14 Sur 28 Sudoeste 0 1016 -1.1 57
2019-08-14 17:00:00 28 18 Sudoeste 30 Sudoeste 0 1016.3 -1.1 57
2019-08-14 16:00:00 28.2 19 Sudoeste 28 Sudoeste 0 1016.6 -1.3 54
2019-08-14 15:00:00 28.2 18 Sudoeste 28 Sudoeste 0 1017.1 -0.8 54
2019-08-14 14:00:00 28.1 18 Sudoeste 26 Sur 0 1017.4 -0.5 54
2019-08-14 13:00:00 27.8 17 Sudoeste 26 Sudoeste 0 1017.9 0.2 55
2019-08-14 12:00:00 26.6 14 Sudoeste 24 Sudoeste 0 1017.9 0.2 60
2019-08-14 11:00:00 27.4 12 Sudoeste 17 Sudoeste 0 1017.9 0.4 55
2019-08-14 10:00:00 26.8 8 Sur 13 Sudeste 0 1017.7 0.7 58
2019-08-14 09:00:00 25.8 5 Sudeste 9 Sur 0 1017.7 0.9 63
2019-08-14 08:00:00 21.6 4 Norte 13 Noroeste 0 1017.5 0.7 79
2019-08-14 07:00:00 20.2 3 Norte 8 Oeste 0 1017 0.1 82
2019-08-14 06:00:00 20.4 3 Noroeste 8 Norte 0 1016.8 -0.4 80
2019-08-14 05:00:00 20.7 0 Calma 8 Norte 0 1016.8 -0.6 79
2019-08-14 04:00:00 21 3 Norte 8 Norte 0 1016.9 -0.5 77
2019-08-14 03:00:00 21.4 3 Norte 8 Noroeste 0 1017.2 0 74
2019-08-14 02:00:00 21.7 5 Noroeste 9 Noroeste 0 1017.4 0.5 72
2019-08-14 01:00:00 22.3 7 Noroeste 13 Noroeste 0 1017.4 0.9 70
2019-08-14 00:00:00 23.3 3 Noroeste 8 Sudeste 0 1017.2 1.2 66
2019-08-13 23:00:00 24.2 6 Sudeste 13 Este 0 1016.9 1.3 63
2019-08-13 22:00:00 24.7 10 Este 15 Este 0 1016.5 1.1 61
2019-08-13 21:00:00 25.1 10 Este 18 Sudeste 0 1016 0.4 61
2019-08-13 20:00:00 25.9 12 Este 24 Este 0 1015.6 -- 58
2019-08-13 19:00:00 26.9 15 Este 24 Este 0 1015.4 -0.7 53
2019-08-13 18:00:00 27.4 16 Este 28 Este 0 1015.6 -0.6 50
2019-08-13 17:00:00 27.9 17 Este 26 Este 0 -- -- 44
2019-08-13 16:00:00 28 15 Este 28 Este 0 1016.1 -0.8 45
2019-08-13 15:00:00 28 21 Este 32 Este 0 1016.2 -0.8 45
2019-08-13 14:00:00 27.8 24 Este 37 Este 0 1016.4 -0.5 47
2019-08-13 13:00:00 27.3 26 Este 37 Este 0 1016.9 0.2 49
2019-08-13 12:00:00 26.6 25 Nordeste 37 Nordeste 0 1017 1 52
2019-08-13 11:00:00 25.6 25 Nordeste 37 Nordeste 0 1016.9 1.7 57
2019-08-13 10:00:00 25.6 28 Este 42 Este 0 1016.7 1.9 56
2019-08-13 09:00:00 25.1 29 Este 45 Nordeste 0 1016 0.7 55
2019-08-13 08:00:00 24.7 31 Este 45 Este 0 1015.2 0.2 56
2019-08-13 07:00:00 24.4 29 Nordeste 42 Nordeste 0 1014.8 -0.7 58
2019-08-13 06:00:00 24.7 25 Nordeste 41 Este 0 1015.3 -0.5 62
2019-08-13 05:00:00 25.1 28 Nordeste 41 Este 0 1015 -0.6 61
2019-08-13 04:00:00 25.2 27 Este 39 Este 0 1015.5 0.2 60
2019-08-13 03:00:00 25.2 24 Este 37 Nordeste 0 1015.8 0.8 63
2019-08-13 02:00:00 25.7 22 Este 33 Nordeste 0 1015.6 1.1 67
2019-08-13 01:00:00 26 23 Este 35 Este 0 1015.3 1.7 70
2019-08-13 00:00:00 25.8 14 Norte 26 Nordeste 0 1015 2.4 74
2019-08-12 23:00:00 25.8 16 Norte 26 Nordeste 0 1014.5 2.4 73
2019-08-12 22:00:00 25.9 19 Nordeste 37 Nordeste 0 1013.6 1.7 72
2019-08-12 21:00:00 25.9 20 Nordeste 39 Nordeste 0 1012.6 0.5 73
2019-08-12 20:00:00 26.4 28 Nordeste 37 Nordeste 0 1012.1 -0.1 70
2019-08-12 19:00:00 26.9 24 Norte 33 Norte 0 1011.9 -0.3 70
2019-08-12 18:00:00 27.3 18 Norte 35 Norte 0 1012.1 0.1 72
2019-08-12 17:00:00 26.3 19 Nordeste 32 Norte 0.2 1012.2 0.1 83
2019-08-12 16:00:00 29.2 22 Este 33 Este 0 1012.2 0.4 68
2019-08-12 15:00:00 29.3 24 Este 37 Este 0 1012 0.4 69
2019-08-12 14:00:00 28.7 22 Este 33 Este 0 1012.1 0.8 72
2019-08-12 13:00:00 29.8 21 Este 28 Este 0 1011.8 1.2 66
2019-08-12 12:00:00 30.5 14 Este 26 Este 0 1011.6 1.2 65
2019-08-12 11:00:00 29.4 12 Este 21 Este 0 1011.3 1.3 67
2019-08-12 10:00:00 28.6 10 Este 21 Norte 0 1010.6 1.1 68
2019-08-12 09:00:00 27.1 2 Nordeste 11 Noroeste 0 1010.4 1.2 76
2019-08-12 08:00:00 24.9 6 Noroeste 21 Noroeste 0 1010 0.7 85
2019-08-12 07:00:00 24.6 5 Noroeste 9 Norte 0 1009.5 0 85
2019-08-12 06:00:00 25.1 4 Nordeste 9 Noroeste 0 1009.2 -0.7 82
2019-08-12 05:00:00 25 3 Noroeste 11 Oeste 0 1009.3 -1.3 83
2019-08-12 04:00:00 24.8 0 Calma 11 Norte 0 1009.5 -1.2 85
2019-08-12 03:00:00 25.3 5 Nordeste -- -- 0 1009.9 -1.8 84
2019-08-12 02:00:00 26.5 6 Oeste 24 Sudoeste 0 1010.6 -0.5 82
2019-08-12 01:00:00 26.9 7 Sudoeste 26 Sudoeste 0 1010.7 0.1 81
2019-08-12 00:00:00 27.2 20 Sudoeste 28 Sudoeste 0 1011.7 2.1 83
2019-08-11 23:00:00 26.9 14 Sudoeste 18 Sudoeste 0 1011.1 1.8 83
2019-08-11 22:00:00 26.9 12 Sudoeste 15 Sudoeste 0 1010.6 1.2 83
2019-08-11 21:00:00 27.5 10 Sudoeste 15 Sudoeste 0 1009.6 -0.3 79
2019-08-11 20:00:00 28.4 10 Sudoeste 17 Sudoeste 0 1009.3 -0.8 73
2019-08-11 19:00:00 29 11 Sudoeste 22 Sur 0 1009.4 -1.1 70
2019-08-11 18:00:00 29.3 15 Sudoeste 26 Sudoeste 0 1009.9 -0.8 70
2019-08-11 17:00:00 29.3 21 Sudoeste 32 Sudoeste 0 1010.1 -1.2 71
2019-08-11 16:00:00 29.5 23 Sudoeste 30 Sudoeste 0 1010.5 -1.1 68
2019-08-11 15:00:00 29.6 22 Sudoeste 32 Sudoeste 0 1010.7 -1 70
2019-08-11 14:00:00 29.1 22 Sudoeste 32 Sudoeste 0 1011.3 -0.5 71
2019-08-11 13:00:00 28.6 24 Sudoeste 37 Sudoeste 0 1011.6 -0.3 73
2019-08-11 12:00:00 28.7 17 Sudoeste 24 Sudoeste 0 1011.7 0.2 70
2019-08-11 11:00:00 28.9 14 Sur 21 Sur 0 1011.8 0.5 70
2019-08-11 10:00:00 28 8 Sudoeste 13 Sudoeste 0 1011.9 1 72
2019-08-11 09:00:00 27.1 5 Norte 13 Norte 0 1011.5 0.8 75
2019-08-11 08:00:00 24.9 7 Noroeste 15 Norte 0 1011.3 -0.2 84
2019-08-11 07:00:00 24.8 5 Noroeste 17 Norte 0 1010.9 -0.9 83
2019-08-11 06:00:00 25.2 8 Norte 11 Norte 0 1010.7 -1.1 83
2019-08-11 05:00:00 25.8 4 Nordeste 8 Norte 0 1011.5 -0.8 81
2019-08-11 04:00:00 26.1 4 Noroeste 8 Norte 0 1011.8 -0.8 80
2019-08-11 03:00:00 25.8 5 Norte 8 Nordeste 0 1011.8 -0.8 81
2019-08-11 02:00:00 26.8 4 Este 9 Sudeste 0 1012.3 -0.3 77
2019-08-11 01:00:00 26.9 5 Este 15 Sudeste 0 1012.6 0.1 81
2019-08-11 00:00:00 27 8 Este 15 Este 0 1012.6 0.5 82
2019-08-10 23:00:00 27.2 10 Este 15 Nordeste 0 1012.6 0.6 83
2019-08-10 22:00:00 26.9 10 Nordeste 18 Este 0 1012.5 0.5 84
2019-08-10 21:00:00 27.3 15 Este 26 Este 0 1012.1 -0.3 83
2019-08-10 20:00:00 28.1 18 Este 26 Este 0 1012 -0.6 79
2019-08-10 19:00:00 28.9 17 Este 24 Norte 0 1012 -0.9 74
2019-08-10 18:00:00 29.4 19 Este 26 Este 0 1012.4 -0.6 73
2019-08-10 17:00:00 30.8 14 Este 22 Este 0 1012.6 -0.4 61
2019-08-10 16:00:00 30.5 10 Sudeste 32 Este 0 1012.9 -0.6 62
2019-08-10 15:00:00 30.3 21 Este 35 Este 0 1013 -1 70
2019-08-10 14:00:00 31.2 22 Este 30 Sudeste 0 1013 -0.4 62
2019-08-10 13:00:00 30.9 13 Este 24 Este 0 1013.5 0.2 59
2019-08-10 12:00:00 29.5 10 Sudoeste 21 Sur 0 1014 1.1 72
2019-08-10 11:00:00 29.1 12 Sudoeste 17 Sudoeste 0 1013.4 0.9 73
2019-08-10 10:00:00 28.2 9 Sudoeste 15 Sudoeste 0 1013.3 1.5 77
2019-08-10 09:00:00 27.1 3 Sudoeste 15 Norte 0 1012.9 1.6 79
2019-08-10 08:00:00 23.5 0 Calma 18 Norte 0 1012.5 1.2 82
2019-08-10 07:00:00 24 4 Norte 13 Oeste 0 1011.8 0.7 86
2019-08-10 06:00:00 25.5 11 Oeste 22 Sudoeste 0 1011.3 0 86
2019-08-10 05:00:00 25.9 15 Sudoeste 24 Sudoeste 0 1011.3 -0.2 85
2019-08-10 04:00:00 25.7 14 Sudoeste 22 Sudoeste 0 1011.1 -0.4 87
2019-08-10 03:00:00 25.9 13 Sudoeste 21 Sudoeste 0 1011.3 -0.1 88
2019-08-10 02:00:00 25.9 14 Sudoeste 18 Sudoeste 0 1011.5 0.3 90
2019-08-10 01:00:00 25.9 12 Oeste 17 Oeste 0 1011.5 0.9 89
2019-08-10 00:00:00 25.8 11 Oeste 13 Oeste 0 1011.4 1.3 89
2019-08-09 23:00:00 26.1 10 Sudoeste 13 Sudoeste 0 1011.2 1.2 87
2019-08-09 22:00:00 26.3 9 Sudoeste 15 Sudoeste 0 1010.6 0.6 87
2019-08-09 21:00:00 26.9 13 Sudoeste 21 Sudoeste 0 1010.1 -0.1 83
2019-08-09 20:00:00 28 15 Sudoeste 26 Sudoeste 0 1010 -0.6 77
2019-08-09 19:00:00 28.8 16 Sudoeste 28 Sudoeste 0 1010 -1.1 72
2019-08-09 18:00:00 28.9 21 Sudoeste 30 Sudoeste 0 1010.2 -1.4 73
2019-08-09 17:00:00 29.7 20 Sudoeste 30 Sudoeste 0 1010.6 -1.2 70
2019-08-09 16:00:00 29.6 21 Sudoeste 32 Sudoeste 0 1011.1 -0.8 68
2019-08-09 15:00:00 29.6 22 Sudoeste 32 Sudoeste 0 1011.6 -0.2 71
2019-08-09 14:00:00 29.6 21 Sudoeste 28 Sudoeste 0 1011.8 0.2 72
2019-08-09 13:00:00 29 21 Sudoeste 30 Sudoeste 0 1011.9 0.2 74
2019-08-09 12:00:00 28.8 19 Sudoeste 24 Sudoeste 0 1011.8 0.6 74
2019-08-09 11:00:00 28.2 14 Sudoeste 24 Sudoeste 0 1011.6 0.5 75
2019-08-09 10:00:00 28.2 17 Sudoeste 24 Sudoeste 0 1011.7 0.9 76
2019-08-09 09:00:00 26.4 5 Sudoeste 9 Sudoeste 0 1011.2 0.8 84
2019-08-09 08:00:00 23.7 5 Noroeste 11 Norte 0 1011.1 0.2 88
2019-08-09 07:00:00 22.2 5 Norte 9 Norte 0 1010.8 0.2 89
2019-08-09 06:00:00 23 0 Calma 9 Noroeste 0 1010.4 -0.3 89
2019-08-09 05:00:00 24.5 5 Noroeste 13 Oeste 0 1010.9 0.2 88
2019-08-09 04:00:00 24.3 6 Oeste 13 Sudoeste 0 1010.6 -0.3 89
2019-08-09 03:00:00 25.4 10 Sudoeste 17 Sudoeste 0 1010.7 0 88
2019-08-09 02:00:00 25.8 10 Sudoeste 15 Sudoeste 0 1010.7 0.1 87
2019-08-09 01:00:00 26 10 Sudoeste 17 Sudoeste 0 1010.9 0.8 87
2019-08-09 00:00:00 26.4 13 Sudoeste 18 Sudoeste 0 1010.7 1 86
2019-08-08 23:00:00 26.8 11 Sudoeste 15 Sudoeste 0 1010.6 0.9 82
2019-08-08 22:00:00 26.7 9 Sudoeste 13 Sudoeste 0 1010.1 0.4 81
2019-08-08 21:00:00 27.8 9 Sudoeste 17 Sudoeste 0 1009.7 -0.3 74
2019-08-08 20:00:00 29.1 14 Sudoeste 21 Sudoeste 0 1009.7 -0.6 66
2019-08-08 19:00:00 29.9 15 Sudoeste 21 Sudoeste 0 1009.7 -0.9 59
2019-08-08 18:00:00 30.7 13 Sudoeste 21 Sur 0 1010 -0.9 59
2019-08-08 17:00:00 30.8 12 Sudoeste 21 Sudoeste 0 1010.3 -1 60
2019-08-08 16:00:00 30.8 13 Sudoeste 21 Sudoeste 0 1010.6 -0.9 61
2019-08-08 15:00:00 31.1 15 Sudoeste 21 Sur 0 1010.9 -0.5 60
2019-08-08 14:00:00 30.1 13 Sudoeste 21 Sudoeste 0 1011.3 0.4 60
2019-08-08 13:00:00 29.8 13 Sudoeste 22 Sudoeste 0 1011.5 0.7 62
2019-08-08 12:00:00 29.3 14 Sudoeste 21 Sur 0 1011.4 0.6 64
2019-08-08 11:00:00 29.1 13 Sudoeste 17 Sudoeste 0 1010.9 0.3 66
2019-08-08 10:00:00 28 7 Sur 11 Sur 0 1010.8 1 74
2019-08-08 09:00:00 27.7 3 Sur 11 Noroeste 0 1010.8 1.3 71
2019-08-08 08:00:00 24 3 Oeste 13 Oeste 0 1010.6 1.2 60
2019-08-08 07:00:00 22.7 6 Norte 11 Norte 0 1009.8 0.6 74
2019-08-08 06:00:00 23.2 8 Nordeste 9 Nordeste 0 1009.5 0.2 67
2019-08-08 05:00:00 25 3 Sudoeste 15 Noroeste 0 1009.4 -0.7 66
2019-08-08 04:00:00 25.1 9 Noroeste 15 Norte 0 1009.2 -1.2 72
2019-08-08 03:00:00 24.9 6 Norte 8 Norte 0 1009.3 -0.7 73
2019-08-08 02:00:00 25.2 7 Sudoeste 11 Oeste 0 1010.1 -0.1 83
2019-08-08 01:00:00 25.6 7 Oeste 11 Sudoeste 0 1010.4 0.9 83
2019-08-08 00:00:00 26 5 Noroeste 13 Oeste 0 1010 1.4 78
2019-08-07 23:00:00 25.8 8 Sudoeste 11 Oeste 0 1010.2 2 82
2019-08-07 22:00:00 26.6 8 Sudoeste 11 Sudoeste 0 1009.5 1.4 80
2019-08-07 21:00:00 27.1 7 Sudoeste 11 Sudoeste 0 1008.6 0.3 76
2019-08-07 20:00:00 28.1 5 Sudoeste 13 Sudoeste 0 1008.2 -0.5 72
2019-08-07 19:00:00 28.4 9 Sudoeste 17 Sudoeste 0 1008.1 -0.8 70
2019-08-07 18:00:00 29.5 11 Sudoeste 21 Sudoeste 0 1008.3 -0.6 67
2019-08-07 17:00:00 29.7 10 Sudoeste 22 Sudoeste 0 1008.7 -0.2 65
2019-08-07 16:00:00 29.4 16 Sudoeste 26 Sudoeste 0 1008.9 -0.2 66
2019-08-07 15:00:00 30.8 21 Sur 30 Sudoeste 0 1008.9 -0.3 60
2019-08-07 14:00:00 29.3 23 Sudoeste 32 Sudoeste 0 1008.9 0.3 68
2019-08-07 13:00:00 29.1 25 Sudoeste 35 Sudoeste 0 1009.1 0.7 68
2019-08-07 12:00:00 28.8 25 Sudoeste 35 Sudoeste 0 1009.2 1.3 71
2019-08-07 11:00:00 28.9 19 Sudoeste 28 Sudoeste 0 1008.6 1.3 69
2019-08-07 10:00:00 27.8 17 Sudoeste 24 Sudoeste 0 1008.4 1.2 75
2019-08-07 09:00:00 26.8 18 Sudoeste 24 Sudoeste 0 1007.9 1.1 79
2019-08-07 08:00:00 26 8 Oeste 17 Sudoeste 0 1007.3 0.6 80
2019-08-07 07:00:00 24.7 8 Noroeste 13 Oeste 0 1007.2 -0.4 86
2019-08-07 06:00:00 25 6 Oeste 11 Sudoeste 0 1006.8 -1 88
2019-08-07 05:00:00 25.4 8 Sudoeste 17 Sudoeste 0 1006.7 -1.5 86
2019-08-07 04:00:00 26 10 Sudoeste 18 Sudoeste 0 1007.6 -1.5 84
2019-08-07 03:00:00 26 14 Sudoeste 21 Sudoeste 0 1007.8 -1.5 84
2019-08-07 02:00:00 25.8 12 Sudoeste 24 Sudoeste 0 1008.2 -0.5 86
2019-08-07 01:00:00 26 19 Sudoeste 28 Sudoeste 0 1009.1 0.7 84
2019-08-07 00:00:00 26 12 Sudoeste 18 Sudoeste 0 1009.3 1.6 85
2019-08-06 23:00:00 26 11 Sudoeste 18 Sudoeste 0 1008.7 1.1 85
2019-08-06 22:00:00 26.1 11 Sudoeste 17 Sudoeste 0 1008.4 0.5 83
2019-08-06 21:00:00 26.4 10 Sudoeste 17 Sudoeste 0 1007.7 -0.8 81
2019-08-06 20:00:00 27.4 12 Sudoeste 21 Sudoeste 0 1007.6 -1.6 76
2019-08-06 19:00:00 28.1 15 Sudoeste 26 Sudoeste 0 1007.9 -1.8 72
2019-08-06 18:00:00 28.5 19 Sudoeste 28 Sudoeste 0 1008.5 -2.1 69
2019-08-06 17:00:00 28.7 21 Sudoeste 30 Sudoeste 0 1009.2 -1.8 69
2019-08-06 16:00:00 29.2 21 Sudoeste 28 Sudoeste 0 1009.7 -1.4 68
2019-08-06 15:00:00 29.3 22 Sudoeste 30 Sudoeste 0 1010.6 -1 67
2019-08-06 14:00:00 29.5 20 Sudoeste 28 Sudoeste 0 1011 -0.7 66
2019-08-06 13:00:00 28.8 17 Sudoeste 26 Sudoeste 0 1011.1 -0.2 70
2019-08-06 12:00:00 28.8 15 Sudoeste 22 Sudoeste 0 1011.6 0.5 68
2019-08-06 11:00:00 28.1 11 Sudoeste 21 Sudoeste 0 1011.7 1.3 70
2019-08-06 10:00:00 27.5 5 Sur 11 Nordeste 0 1011.3 0.9 70
2019-08-06 09:00:00 26.8 2 Este 9 Norte 0 1011.1 0.8 76
2019-08-06 08:00:00 24.2 0 Calma 17 Oeste 0 1010.4 0 83
2019-08-06 07:00:00 23.5 6 Norte 11 Norte 0 1010.4 -0.3 85
2019-08-06 06:00:00 23.6 0 Calma 9 Norte 0 1010.3 -0.6 85
2019-08-06 05:00:00 24.4 5 Norte 13 Norte 0 1010.4 -1.1 84
2019-08-06 04:00:00 25 3 Noroeste 9 Norte 0 1010.7 -1.1 83
2019-08-06 03:00:00 25.8 5 Oeste -- -- 0 1010.9 -0.6 82
2019-08-06 02:00:00 26.4 6 Sudoeste 15 Sudoeste 0 1011.5 0.5 79
2019-08-06 01:00:00 26.4 9 Sur 13 Sur 0 1011.8 1.3 78
2019-08-06 00:00:00 26.4 3 Sudeste 15 Sudeste 0 1011.5 1.5 79
2019-08-05 23:00:00 26.4 9 Este 17 Este 0 1011 0.9 80
2019-08-05 22:00:00 26.4 10 Este 18 Norte 0 1010.5 0.2 80
2019-08-05 21:00:00 26.7 13 Este 21 Este 0 1010 -0.8 80
2019-08-05 20:00:00 27.2 14 Este 22 Norte 0 1010.1 -1.3 76
2019-08-05 19:00:00 28.3 15 Este 24 Este 0 1010.3 -1.2 71
2019-08-05 18:00:00 28.8 16 Este 24 Este 0 1010.8 -1.2 68
2019-08-05 17:00:00 28.9 17 Este 28 Este 0 1011.4 -0.8 68
2019-08-05 16:00:00 29.5 17 Este 24 Este 0 1011.5 -1.1 66
2019-08-05 15:00:00 29.3 15 Este 24 Este 0 1012 -1 66
2019-08-05 14:00:00 29.3 17 Este 30 Este 0 1012.2 -0.9 66
2019-08-05 13:00:00 29.3 16 Este 24 Este 0 1012.6 -0.2 67
2019-08-05 12:00:00 29.3 12 Este 22 Nordeste 0 1013 0.5 62
2019-08-05 11:00:00 27.5 12 Este 17 Este 0 1013.1 1.1 74
2019-08-05 10:00:00 27.6 8 Este 17 Norte 0 1012.8 0.9 68
2019-08-05 09:00:00 26.8 14 Nordeste 21 Norte 0 1012.5 0.9 70
2019-08-05 08:00:00 25.9 12 Este 17 Este 0 1012 0.1 76
2019-08-05 07:00:00 24.4 3 Norte 11 Norte 0 1011.9 -0.2 83
2019-08-05 06:00:00 24.2 8 Norte 11 Norte 0 1011.6 -1 83
2019-08-05 05:00:00 24.2 6 Norte 11 Norte 0 1011.9 -1.1 84
2019-08-05 04:00:00 24.7 9 Norte 13 Norte 0 1012.1 -0.7 83
2019-08-05 03:00:00 25 5 Noroeste 8 Norte 0 1012.6 -0.2 83
2019-08-05 02:00:00 25.1 0 Calma 11 Sudeste 0 1013 0.6 83
2019-08-05 01:00:00 25.6 9 Sudeste 18 Este 0 1012.8 0.9 81
2019-08-05 00:00:00 25.9 13 Este 21 Este 0 1012.8 1.4 79
2019-08-04 23:00:00 26.1 12 Este 21 Este 0 1012.4 1.3 78
2019-08-04 22:00:00 26.3 14 Este 21 Este 0 1011.9 0.7 76
2019-08-04 21:00:00 26.8 11 Este 18 Este 0 1011.4 0.2 72
2019-08-04 20:00:00 27.7 12 Este 18 Este 0 1011.1 -0.4 68
2019-08-04 19:00:00 28.2 15 Este 22 Nordeste 0 1011.2 -0.9 66
2019-08-04 18:00:00 28.6 15 Este 24 Nordeste 0 1011.2 -1.4 64
2019-08-04 17:00:00 29.1 16 Este 26 Este 0 1011.5 -1.4 63
2019-08-04 16:00:00 30 14 Este 26 Este 0 1012.1 -1.2 55
2019-08-04 15:00:00 29.4 18 Este 28 Este 0 1012.6 -0.7 62
2019-08-04 14:00:00 29.3 15 Este 26 Este 0 1012.9 -0.1 61
2019-08-04 13:00:00 29.9 14 Este 22 Este 0 1013.3 0.4 51
2019-08-04 12:00:00 28.4 13 Este 21 Este 0 1013.3 0.7 64
2019-08-04 11:00:00 27.8 14 Este 21 Este 0 1013 1.1 68
2019-08-04 10:00:00 26.9 13 Este 18 Este 0 1012.9 1 76
2019-08-04 09:00:00 25.7 11 Este 15 Este 0 1012.6 1.3 78
2019-08-04 08:00:00 22.9 3 Norte 18 Norte 0 1011.9 0.6 68
2019-08-04 07:00:00 20.9 6 Noroeste 11 Noroeste 0 1011.9 0.2 67
2019-08-04 06:00:00 21.1 8 Norte 13 Norte 0 1011.3 -0.5 78
2019-08-04 05:00:00 21.8 6 Norte 13 Norte 0 1011.3 -0.9 83
2019-08-04 04:00:00 22.7 10 Norte 13 Norte 0 1011.7 -0.6 86
2019-08-04 03:00:00 22.9 9 Norte 11 Norte 0 1011.8 -0.3 85
2019-08-04 02:00:00 23.5 6 Norte 11 Norte 0 1012.2 0.1 84
2019-08-04 01:00:00 24.1 0 Calma 9 Este 0 1012.3 0.7 85
2019-08-04 00:00:00 24.9 7 Sudeste 13 Este 0 1012.1 1.2 81
2019-08-03 23:00:00 25.2 8 Este 15 Sudeste 0 1012.1 1.3 79
2019-08-03 22:00:00 25.2 4 Sudeste 11 Este 0 1011.6 0.4 76
2019-08-03 21:00:00 26.2 8 Este 15 Nordeste 0 1010.9 -0.8 72
2019-08-03 20:00:00 27.2 10 Este 22 Este 0 1010.8 -1.7 67
2019-08-03 19:00:00 27.7 13 Este 22 Norte 0 1011.2 -1.5 64
2019-08-03 18:00:00 28.4 16 Este 22 Este 0 1011.7 -1.5 61
2019-08-03 17:00:00 28.9 15 Este 24 Este 0 1012.5 -1 58
2019-08-03 16:00:00 29.2 17 Este 26 Este 0 1012.7 -1.3 55
2019-08-03 15:00:00 29.4 17 Este 24 Este 0 1013.2 -0.7 51
2019-08-03 14:00:00 29.4 15 Este 26 Este 0 1013.5 -0.3 54
2019-08-03 13:00:00 28.9 12 Este 22 Nordeste 0 1014 0.4 51
2019-08-03 12:00:00 27.9 12 Este 21 Este 0 1013.9 0.8 60
2019-08-03 11:00:00 28.1 11 Este 22 Este 0 1013.8 0.6 58
2019-08-03 10:00:00 27.3 11 Este 18 Este 0 1013.6 1 66
2019-08-03 09:00:00 26.3 12 Nordeste 22 Este 0 1013.1 1.1 69
2019-08-03 08:00:00 23 3 Noroeste 11 Oeste 0 1013.2 0.6 71
2019-08-03 07:00:00 22.5 4 Noroeste 9 Noroeste 0 1012.6 0.1 74
2019-08-03 06:00:00 22.2 4 Norte 11 Norte 0 1012 -0.8 78
2019-08-03 05:00:00 22.7 7 Norte 15 Norte 0 1012.6 -0.6 77
2019-08-03 04:00:00 23 10 Norte 17 Norte 0 1012.5 -1.1 81
2019-08-03 03:00:00 23.6 7 Norte 11 Este 0 1012.8 -0.4 80
2019-08-03 02:00:00 24.7 7 Este 11 Este 0 1013.2 0.1 79
2019-08-03 01:00:00 25.1 9 Este 17 Este 0 1013.6 1.2 77
2019-08-03 00:00:00 25.6 12 Este 17 Este 0 1013.2 1.7 73
2019-08-02 23:00:00 25.7 11 Este 17 Este 0 1013.1 1.9 66
2019-08-02 22:00:00 26.1 13 Este 24 Nordeste 0 1012.4 1.1 59
2019-08-02 21:00:00 26.3 17 Este 28 Este 0 1011.5 0 67
2019-08-02 20:00:00 27.1 19 Nordeste 28 Este 0 1011.2 -0.9 66
2019-08-02 19:00:00 28.1 21 Este 28 Norte 0 1011.3 -1.3 60
2019-08-02 18:00:00 28.9 15 Este 24 Este 0 1011.5 -1.4 56
2019-08-02 17:00:00 28.7 18 Este 26 Este 0 1012.1 -0.9 63
2019-08-02 16:00:00 28.6 16 Este 26 Sudeste 0 1012.6 0 68
2019-08-02 15:00:00 28.5 16 Este 26 Este 0 1012.9 0.5 70
2019-08-02 14:00:00 28.8 18 Este 28 Norte 0 1013 0.8 63
2019-08-02 13:00:00 29.5 14 Este 22 Sudeste 0 1012.6 1 54
2019-08-02 12:00:00 28.2 13 Sudoeste 21 Sudoeste 0 1012.4 1.1 65
2019-08-02 11:00:00 28.7 10 Sur 21 Nordeste 0 1012.2 1.6 62
2019-08-02 10:00:00 28.3 9 Nordeste 22 Norte 0 1011.6 1.2 61
2019-08-02 09:00:00 26.7 13 Norte 21 Norte 0 1011.3 1.4 68
2019-08-02 08:00:00 25.2 16 Nordeste 24 Norte 0 1010.6 0.2 76
2019-08-02 07:00:00 24.6 7 Norte 22 Norte 0 1010.4 0.3 78
2019-08-02 06:00:00 24.8 10 Nordeste 30 Norte 0 1009.9 -0.9 78
2019-08-02 05:00:00 24.8 13 Norte 26 Norte 0 1010.4 -0.5 78
2019-08-02 04:00:00 24.7 12 Norte 18 Norte 0 1010.1 -0.9 78
2019-08-02 03:00:00 24.6 8 Noroeste 22 Noroeste 0 1010.8 -0.3 80
2019-08-02 02:00:00 24.4 7 Noroeste 15 Noroeste 0 1010.9 0.6 80
2019-08-02 01:00:00 25.2 6 Noroeste 17 Oeste 0 1011 1.7 76
2019-08-02 00:00:00 24.6 10 Oeste 18 Noroeste 0 1011.1 2.2 64
2019-08-01 23:00:00 26.1 6 Noroeste 13 Oeste 0 1010.3 1.4 54
2019-08-01 22:00:00 25.9 3 Este 8 Sudoeste 0 1009.3 1 73
2019-08-01 21:00:00 26.8 2 Nordeste 15 Sur 0 1008.9 1.5 67
2019-08-01 20:00:00 28.6 12 Sur 21 Sur 0 1008.9 -0.7 58
2019-08-01 19:00:00 30.4 8 Noroeste 35 Nordeste 0 1008.3 -1.9 47
2019-08-01 18:00:00 28.5 21 Nordeste 41 Nordeste 0 1007.4 -2.2 55
2019-08-01 17:00:00 29 11 Noroeste 32 Oeste 0 1009.6 -0.7 52
2019-08-01 16:00:00 29.8 19 Oeste 30 Sudoeste 0 1010.2 -0.2 52
2019-08-01 15:00:00 29.6 11 Sur 21 Este 0 1009.6 -0.1 56
2019-08-01 14:00:00 29.2 15 Nordeste 26 Este 0 1010.3 0 59
2019-08-01 13:00:00 29.4 19 Este 32 Norte 0 1010.4 0 58
2019-08-01 12:00:00 29 18 Este 30 Este 0 1009.7 -0.3 60
2019-08-01 11:00:00 28.7 14 Este 26 Este 0 1010.3 0.1 59
2019-08-01 10:00:00 27.2 14 Nordeste 28 Nordeste 0 1010.4 0.6 66
2019-08-01 09:00:00 26.3 20 Nordeste 30 Nordeste 0 1010 0.3 69
2019-08-01 08:00:00 25.2 22 Nordeste 33 Nordeste 0 1010.2 -0.1 72
2019-08-01 07:00:00 24.6 18 Nordeste 33 Nordeste 0 1009.8 -0.2 71
2019-08-01 06:00:00 24.7 22 Nordeste 46 Este 0 1009.7 -1 66
2019-08-01 05:00:00 25.1 27 Nordeste 45 Este 0 1010.3 -1.5 65
2019-08-01 04:00:00 24.5 21 Nordeste 33 Nordeste 0 1010 -2.2 63
2019-08-01 03:00:00 24.2 22 Nordeste 33 Nordeste 0 1010.7 -1.4 65
2019-08-01 02:00:00 24.8 26 Nordeste 46 Este 0 1011.8 -1.2 69
2019-08-01 01:00:00 24.5 15 Nordeste 26 Nordeste 0 1012.2 -0.2 68
2019-08-01 00:00:00 25 15 Nordeste 30 Nordeste 0 1012.1 1.1 67
2019-07-31 23:00:00 25.5 15 Nordeste 35 Nordeste 0 1013 2.1 66
2019-07-31 22:00:00 25.8 26 Este 41 Este 0 1012.4 0.5 64
2019-07-31 21:00:00 26 33 Nordeste 45 Nordeste 0 1011 -1.4 65
2019-07-31 20:00:00 27.2 28 Nordeste 39 Este 0 1010.9 -2.5 55
2019-07-31 19:00:00 26.9 26 Nordeste 42 Nordeste 0 1011.9 -2.3 56
2019-07-31 18:00:00 27.3 28 Este 41 Este 0 1012.4 -1.5 59
2019-07-31 17:00:00 27.5 27 Este 42 Nordeste 0 1013.4 -1.5 58
2019-07-31 16:00:00 27.3 25 Este 46 Este 0 1014.2 0.6 60
2019-07-31 15:00:00 27.4 27 Este 48 Nordeste 0 1013.9 -0.8 60
2019-07-31 14:00:00 27.4 26 Este 46 Nordeste 0 1014.9 0 56
2019-07-31 13:00:00 27.3 39 Nordeste 54 Nordeste 0 1013.6 0.9 55
2019-07-31 12:00:00 26.8 34 Nordeste 54 Este 0 1014.7 0.7 62
2019-07-31 11:00:00 25.7 29 Este 52 Este 0 1014.9 1.3 64
2019-07-31 10:00:00 25.2 37 Nordeste 54 Este 0 1012.7 -1.3 65
2019-07-31 09:00:00 25.9 33 Este 45 Este 0 1014 0.6 62
2019-07-31 08:00:00 25 26 Nordeste 42 Nordeste 0 1013.6 0.2 71
2019-07-31 07:00:00 25 27 Nordeste 39 Nordeste 0 1014 0.5 72
2019-07-31 06:00:00 25.1 25 Nordeste 37 Nordeste 0 1013.4 0.3 74
2019-07-31 05:00:00 25.2 20 Este 32 Norte 0 1013.4 0.2 76
2019-07-31 04:00:00 25.5 21 Este 30 Este 0 1013.5 0.1 77
2019-07-31 03:00:00 24.5 14 Nordeste 22 Nordeste 0 1013.1 -0.2 78
2019-07-31 02:00:00 24.9 13 Nordeste 24 Este 0 1013.2 0.3 79
2019-07-31 01:00:00 25.2 15 Este 21 Este 0 1013.4 1.1 80
2019-07-31 00:00:00 25.2 14 Este 26 Nordeste 0 1013.3 1.4 80
2019-07-30 23:00:00 25.4 15 Este 24 Este 0 1012.9 1.2 77
2019-07-30 22:00:00 25.5 16 Este 24 Este 0 1012.3 0.6 73
2019-07-30 21:00:00 25.9 13 Este 22 Este 0 1011.9 -0.1 71
2019-07-30 20:00:00 27 14 Este 21 Norte 0 1011.7 -0.3 67
2019-07-30 19:00:00 27.4 13 Este 24 Norte 0 1011.7 -0.4 65
2019-07-30 18:00:00 27.9 17 Este 26 Este 0 1012 -0.6 63
2019-07-30 17:00:00 28.2 18 Nordeste 24 Este 0 1012 -0.8 62
2019-07-30 16:00:00 28.9 14 Este 24 Este 0 1012.1 -0.7 59
2019-07-30 15:00:00 28.5 17 Este 28 Este 0 1012.6 -0.2 60
2019-07-30 14:00:00 28.4 18 Este 28 Norte 0 1012.8 0.3 58
2019-07-30 13:00:00 28.4 20 Este 28 Este 0 1012.8 0.5 59
2019-07-30 12:00:00 28.2 17 Este 30 Este 0 1012.8 1.2 60
2019-07-30 11:00:00 28.6 9 Este 28 Este 0 1012.5 1.6 54
2019-07-30 10:00:00 27.3 7 Sur 13 Sudoeste 0 1012.3 1.7 58
2019-07-30 09:00:00 26.3 9 Sudoeste 13 Sudoeste 0 1011.6 1.5 65
2019-07-30 08:00:00 24.9 9 Sur 13 Sur 0 1010.9 1.2 70
2019-07-30 07:00:00 23.7 10 Sur 15 Sur 0 1010.6 0.8 76
2019-07-30 06:00:00 22.8 3 Sur 9 Sur 0 1010.1 0.1 82
2019-07-30 05:00:00 23.9 8 Sur 15 Sur 0 1009.7 -0.4 78
2019-07-30 04:00:00 24.3 10 Sur 17 Sur 0 1009.8 -0.3 76
2019-07-30 03:00:00 24.4 10 Sur 21 Sur 0 1010 -0.1 76
2019-07-30 02:00:00 24.8 13 Sur 21 Sur 0 1010.1 0.3 74
2019-07-30 01:00:00 25 13 Sur 24 Sur 0 1010.1 1.1 72
2019-07-30 00:00:00 25.2 16 Sur 26 Sur 0 1010.1 1.5 69
2019-07-29 23:00:00 25.2 14 Sur 26 Sudoeste 0 1009.8 1.1 69
2019-07-29 22:00:00 25.5 18 Sur 26 Sur 0 1009 0.3 64
2019-07-29 21:00:00 26.2 15 Sur 24 Sur 0 1008.6 -0.5 56
2019-07-29 20:00:00 27 17 Sudoeste 24 Sudoeste 0 1008.7 -0.6 57
2019-07-29 19:00:00 27.5 20 Sudoeste 28 Sudoeste 0 1008.7 -1 54
2019-07-29 18:00:00 28 18 Sudoeste 30 Sudoeste 0 1009.1 -0.8 54
2019-07-29 17:00:00 28.3 22 Sudoeste 32 Sudoeste 0 1009.3 -0.8 51
2019-07-29 16:00:00 28.5 20 Sudoeste 30 Sudoeste 0 1009.7 -0.4 52
2019-07-29 15:00:00 28.1 21 Sudoeste 30 Sudoeste 0 1009.9 0 53
2019-07-29 14:00:00 28.1 20 Sudoeste 30 Sur 0 1010.1 0.1 64
2019-07-29 13:00:00 27.5 18 Sudoeste 24 Sudoeste 0 1010.1 0.1 66
2019-07-29 12:00:00 27.2 15 Sudoeste 24 Sudoeste 0 1009.9 0 67
2019-07-29 11:00:00 26.9 16 Sudoeste 28 Sudoeste 0 1010 0.7 67
2019-07-29 10:00:00 26.2 18 Sudoeste 28 Sudoeste 0 1010 1.2 70
2019-07-29 09:00:00 25.8 18 Sudoeste 28 Sudoeste 0 1009.9 1.3 71
2019-07-29 08:00:00 24.9 17 Sudoeste 22 Sudoeste 0 1009.3 0.7 70
2019-07-29 07:00:00 23.8 11 Sudoeste 17 Sudoeste 0 1008.8 0.1 74
2019-07-29 06:00:00 23.2 8 Sudoeste 13 Sudoeste 0 1008.6 -0.5 76
2019-07-29 05:00:00 21.2 2 Norte 8 Norte 0 1008.6 -0.7 77
2019-07-29 04:00:00 21.3 3 Norte 5 Norte 0 1008.7 -0.7 76
2019-07-29 03:00:00 21.6 3 Norte 8 Norte 0 1009.1 -0.4 74
2019-07-29 02:00:00 21.9 6 Norte 9 Norte 0 1009.3 0 72
2019-07-29 01:00:00 22.6 5 Norte -- -- 0 1009.4 0.5 66
2019-07-29 00:00:00 22.7 4 Norte 9 Noroeste 0 1009.5 1 63
2019-07-28 23:00:00 23.8 0 Calma 5 Norte 0 1009.3 1.1 62
2019-07-28 22:00:00 24.3 3 Sur 13 Sur 0 1008.9 0.9 60
2019-07-28 21:00:00 25.8 8 Sur 17 Sur 0 1008.5 0.2 57
2019-07-28 20:00:00 26.7 9 Sur 18 Sur 0 1008.2 -0.3 51
2019-07-28 19:00:00 27.6 12 Sur 22 Sur 0 1008 -0.9 50
2019-07-28 18:00:00 28 14 Sur 28 Sudeste 0 1008.3 -0.8 45
2019-07-28 17:00:00 28.4 14 Sudeste 26 Este 0 1008.5 -0.4 46
2019-07-28 16:00:00 28 16 Este 32 Sudeste 0 1008.9 0 47
2019-07-28 15:00:00 27.6 19 Este 28 Este 0 1009.1 0.5 47
2019-07-28 14:00:00 27.8 17 Este 30 Este 0 1008.9 0.6 48
2019-07-28 13:00:00 27.3 20 Este 28 Norte 0 1008.9 0.9 50
2019-07-28 12:00:00 27.9 17 Este 30 Este 0 1008.6 0.9 48
2019-07-28 11:00:00 28.2 10 Oeste 28 Norte 0 1008.3 -- 33
2019-07-28 10:00:00 27.3 14 Noroeste 28 Noroeste 0 1008 1.9 35
2019-07-28 09:00:00 26.1 14 Norte 26 Norte 0 1007.7 2 41
2019-07-28 08:00:00 25.1 7 Nordeste 18 Norte 0 -- -- 46
2019-07-28 07:00:00 24.4 13 Norte 26 Noroeste 0 1006.1 1.2 46
2019-07-28 06:00:00 24.8 14 Noroeste 32 Norte 0 1005.7 0.7 44
2019-07-28 05:00:00 24.9 13 Norte 32 Norte 0 1005.2 0.6 46
2019-07-28 04:00:00 25.5 19 Norte 33 Norte 0 1004.9 0.9 45
2019-07-28 03:00:00 25.9 17 Norte 32 Norte 0 1005 1.6 47
2019-07-28 02:00:00 26.1 19 Norte 33 Norte 0 1004.6 1.7 63
2019-07-28 01:00:00 26.1 12 Norte 28 Oeste 0 1004 1.5 59
2019-07-28 00:00:00 26.4 24 Oeste 35 Oeste 0 1003.4 1.4 72
2019-07-27 23:00:00 26.2 23 Sudoeste 33 Sudoeste 0 1002.9 0.9 70
2019-07-26 12:00:00 27.3 16 Sudoeste 26 Sudoeste 0 1009.4 -0.2 67
2019-07-26 11:00:00 28.2 15 Sur 22 Sur 0 1009.5 -0.1 65
2019-07-26 10:00:00 27.4 10 Sudeste 24 Sudeste 0 1009.5 0 70
2019-07-26 09:00:00 26.7 8 Sudeste 17 Este 0 1009.6 0.2 73
2019-07-26 08:00:00 24.9 0 Calma 9 Nordeste 0 1009.6 -0.2 83
2019-07-26 07:00:00 23.4 5 Norte 8 Norte 0 1009.5 -0.4 87
2019-07-26 06:00:00 23.1 8 Norte 9 Norte 0 1009.4 -1 88
2019-07-26 05:00:00 23.5 3 Norte 9 Norte 0 1009.8 -0.9 88
2019-07-26 04:00:00 24.1 8 Nordeste 11 Nordeste 0 1009.9 -1.3 87
2019-07-26 03:00:00 24.7 9 Este 11 Este 0 1010.4 -1 86
2019-07-26 02:00:00 24.5 2 Este 11 Este 0 1010.7 -1 87
2019-07-26 01:00:00 24.7 6 Este 9 Este 0 1011.2 0.1 85
2019-07-26 00:00:00 25.2 4 Sudeste 11 Este 0 1011.4 0.5 83
2019-07-25 23:00:00 26 8 Este 18 Este 0 1011.7 1 81
2019-07-25 22:00:00 26.1 12 Este 18 Este 0 1011.1 0.2 78
2019-07-25 21:00:00 26.9 14 Este 22 Nordeste 0 1010.9 -0.3 73
2019-07-25 20:00:00 27.9 16 Este 22 Este 0 1010.7 -0.9 66
2019-07-25 19:00:00 28.6 15 Este 22 Este 0 1010.9 -1.2 63
2019-07-25 18:00:00 29.2 16 Este 24 Este 0 1011.2 -1.4 60
2019-07-25 17:00:00 29.3 16 Este 26 Este 0 1011.6 -1.3 58
2019-07-25 16:00:00 30.3 16 Nordeste 22 Este 0 1012.1 -1.1 48
2019-07-25 15:00:00 30.5 14 Este 24 Este 0 1012.6 -0.5 46
2019-07-25 14:00:00 29.8 16 Este 26 Este 0 1012.9 -0.2 55
2019-07-25 13:00:00 29.6 18 Este 26 Este 0 1013.2 0.3 56
2019-07-25 12:00:00 28.8 16 Este 26 Este 0 1013.1 0.4 64
2019-07-25 11:00:00 28.5 18 Este 24 Este 0 1013.1 0.7 67
2019-07-25 10:00:00 27.8 17 Este 24 Este 0 1012.9 0.7 72
2019-07-25 09:00:00 27.5 14 Este 18 Este 0 1012.7 0.7 57
2019-07-25 08:00:00 24.3 8 Nordeste 9 Nordeste 0 1012.4 0.1 60
2019-07-25 07:00:00 21.7 7 Norte 21 Norte 0 1012.2 -0.3 66
2019-07-25 06:00:00 21.6 6 Norte 11 Norte 0 1012 -0.6 67
2019-07-25 05:00:00 22.1 5 Norte 11 Noroeste 0 1012.3 -0.7 69
2019-07-25 04:00:00 23.2 7 Norte 11 Noroeste 0 1012.5 -0.8 70
2019-07-25 03:00:00 22.9 9 Norte 17 Nordeste 0 1012.6 -0.9 71
2019-07-25 02:00:00 23.9 8 Norte 17 Norte 0 1013 -0.3 70
2019-07-25 01:00:00 24.3 8 Norte 15 Norte 0 1013.3 0.4 72
2019-07-25 00:00:00 25.6 9 Nordeste 15 Nordeste 0 1013.5 1 81
2019-07-24 23:00:00 25.1 11 Nordeste 15 Nordeste 0 1013.3 0.9 77
2019-07-24 22:00:00 25.7 7 Nordeste 13 Este 0 1012.9 0.3 72
2019-07-24 21:00:00 26.9 11 Este 18 Este 0 1012.5 -0.4 68
2019-07-24 20:00:00 28.1 15 Este 22 Este 0 1012.4 -0.9 59
2019-07-24 19:00:00 29.6 15 Este 21 Este 0 1012.6 -1.1 46
2019-07-24 18:00:00 30 14 Este 22 Norte 0 1012.9 -1.2 39
2019-07-24 17:00:00 30.2 15 Este 22 Este 0 1013.3 -0.9 45
2019-07-24 16:00:00 30.7 17 Este 24 Este 0 1013.7 -0.6 44
2019-07-24 15:00:00 30 17 Este 26 Este 0 1014.1 -0.2 55
2019-07-24 14:00:00 29.7 18 Este 26 Norte 0 1014.2 0.1 57
2019-07-24 13:00:00 29.6 21 Este 28 Este 0 1014.3 0.2 53
2019-07-24 12:00:00 29.8 17 Este 26 Este 0 1014.3 0.3 54
2019-07-24 11:00:00 29.3 18 Nordeste 24 Este 0 1014.1 0.1 52
2019-07-24 10:00:00 29.1 11 Este 17 Este 0 1014.1 0.5 48
2019-07-24 09:00:00 27.9 7 Este 15 Nordeste 0 1014 0.6 50
2019-07-24 08:00:00 23.8 2 Oeste 11 Norte 0 1014 0.4 52
2019-07-24 07:00:00 22.1 6 Norte 9 Norte 0 1013.6 -0.4 65
2019-07-24 06:00:00 21.9 6 Norte 11 Norte 0 1013.4 -0.3 70
2019-07-24 05:00:00 23.1 9 Norte 11 Norte 0 1013.6 -0.3 67
2019-07-24 04:00:00 24.6 6 Norte 17 Nordeste 0 1014 -0.1 71
2019-07-24 03:00:00 24.9 12 Nordeste 18 Este 0 1013.7 -0.4 79
2019-07-24 02:00:00 25.1 13 Nordeste 21 Nordeste 0 1013.9 -0.1 74
2019-07-24 01:00:00 25.6 14 Nordeste 21 Este 0 1014.1 0.4 67
2019-07-24 00:00:00 25.9 13 Nordeste 21 Nordeste 0 1014.1 0.3 63
2019-07-23 23:00:00 26.5 14 Nordeste 24 Este 0 1014 0.1 61
2019-07-23 22:00:00 26.6 17 Nordeste 26 Este 0 1013.7 -0.4 63
2019-07-23 21:00:00 27.3 14 Este 26 Nordeste 0 1013.8 -0.8 59
2019-07-23 20:00:00 28.1 17 Este 26 Este 0 1013.9 -0.9 60
2019-07-23 19:00:00 28.5 19 Este 26 Este 0 1014.1 -1 58
2019-07-23 18:00:00 29.3 18 Este 28 Este 0 1014.6 -0.9 56
2019-07-23 17:00:00 29.9 18 Este 30 Este 0 1014.8 -1.1 52
2019-07-23 16:00:00 29.9 20 Este 26 Este 0 1015.1 -1 53
2019-07-23 15:00:00 30.2 20 Este 28 Nordeste 0 1015.5 -0.8 51
2019-07-23 14:00:00 29.8 16 Este 26 Este 0 1015.9 -0.4 51
2019-07-23 13:00:00 29.7 20 Este 26 Este 0 1016.1 0 50
2019-07-23 12:00:00 29.1 16 Este 24 Este 0 1016.3 0.3 54
2019-07-23 11:00:00 28 16 Este 24 Este 0 1016.3 0.2 62
2019-07-23 10:00:00 27.6 17 Este 26 Este 0 1016.1 0.1 63
2019-07-23 09:00:00 27.4 17 Este 24 Nordeste 0 1016 0 59
2019-07-23 08:00:00 25.7 8 Nordeste 11 Nordeste 0 1016.1 -0.2 56
2019-07-23 07:00:00 23.1 9 Nordeste -- -- 0 1016 -0.6 61
2019-07-23 06:00:00 23.5 10 Nordeste 17 Nordeste 0 1016 -0.8 56
2019-07-23 05:00:00 23.8 10 Nordeste 13 Nordeste 0 1016.3 -0.8 52
2019-07-23 04:00:00 24.3 9 Nordeste 24 Este 0 1016.6 -0.7 51
2019-07-23 03:00:00 24.8 7 Norte 24 Norte 0 1016.8 -0.4 54
2019-07-23 02:00:00 25.8 12 Norte 22 Nordeste 0 1017.1 -0.3 56
2019-07-23 01:00:00 26 12 Nordeste 18 Nordeste 0 1017.3 -0.1 56
2019-07-23 00:00:00 25.4 12 Nordeste 26 Norte 0 1017.2 -0.4 58
2019-07-22 23:00:00 26.1 15 Nordeste 18 Nordeste 0 1017.4 0 55
2019-07-22 22:00:00 26.9 12 Nordeste 21 Este 0 1017.4 -0.4 52
2019-07-22 21:00:00 27.3 10 Este 18 Este 0 1017.6 -0.5 58
2019-07-22 20:00:00 28.2 13 Nordeste 21 Este 0 1017.4 -1.2 55
2019-07-22 19:00:00 28.4 12 Este 28 Este 0 1017.8 -1 57
2019-07-22 18:00:00 28.9 17 Nordeste 24 Este 0 1018.1 -1.1 55
2019-07-22 17:00:00 29.3 19 Este 30 Este 0 1018.6 -0.7 54
2019-07-22 16:00:00 29.6 21 Este 30 Este 0 1018.8 -0.8 51
2019-07-22 15:00:00 30.2 20 Este 30 Este 0 1019.2 -0.1 48
2019-07-22 14:00:00 30.3 19 Este 32 Este 0 1019.3 0.3 46
2019-07-22 13:00:00 29.8 22 Este 35 Este 0 1019.6 1.1 53
2019-07-22 12:00:00 28.8 27 Este 39 Nordeste 0 1019.3 0.6 59
2019-07-22 11:00:00 28.4 26 Este 41 Nordeste 0 1019 0.6 59
2019-07-22 10:00:00 27.9 29 Nordeste 41 Este 0 1018.5 0.2 58
2019-07-22 09:00:00 27.4 23 Nordeste 35 Este 0 1018.7 0.6 59
2019-07-22 08:00:00 25.7 17 Nordeste 26 Nordeste 0 1018.4 0.3 63
2019-07-22 07:00:00 24 14 Nordeste 22 Nordeste 0 1018.3 -0.5 71
2019-07-22 06:00:00 24.2 14 Nordeste 18 Nordeste 0 1018.1 -1.1 70
2019-07-22 05:00:00 24.4 14 Nordeste 21 Nordeste 0 1018.1 -1.1 66
2019-07-22 04:00:00 23.5 11 Nordeste 17 Nordeste 0 1018.8 0.1 71
2019-07-22 03:00:00 23.9 7 Nordeste 21 Nordeste 0 1019.2 0.9 70
2019-07-22 02:00:00 24.6 10 Nordeste 21 Nordeste 0 1019.2 0.8 67
2019-07-22 01:00:00 25.6 15 Nordeste 26 Nordeste 0 1018.7 0.9 69
2019-07-22 00:00:00 25.9 19 Nordeste 28 Este 0 1018.3 1.2 70
2019-07-21 23:00:00 25.7 12 Nordeste 22 Nordeste 0 1018.4 1.6 69
2019-07-21 22:00:00 26.2 15 Nordeste 24 Este 0 1017.8 0.9 68
2019-07-21 21:00:00 26.6 18 Nordeste 28 Nordeste 0 1017.1 -0.1 68
2019-07-21 20:00:00 27.5 19 Nordeste 28 Este 0 1016.8 -0.6 64
2019-07-21 19:00:00 28.2 22 Este 30 Nordeste 0 1016.9 -0.7 62
2019-07-21 18:00:00 28.7 21 Este 33 Este 0 1017.2 -0.3 59
2019-07-21 17:00:00 29.1 26 Este 35 Este 0 1017.4 -0.6 59
2019-07-21 16:00:00 29.1 27 Este 39 Nordeste 0 1017.6 -0.3 60
2019-07-21 15:00:00 29.1 31 Este 41 Nordeste 0 1017.5 -0.2 61
2019-07-21 14:00:00 29.1 23 Este 35 Nordeste 0 1018 0.7 63
2019-07-21 13:00:00 28.7 23 Este 33 Este 0 1017.9 0.9 67
2019-07-21 12:00:00 28.5 23 Este 35 Este 0 1017.7 1.2 69
2019-07-21 11:00:00 27.9 26 Este 35 Nordeste 0 1017.3 1.6 69
2019-07-21 10:00:00 27.9 25 Este 37 Este 0 1017 2 62
2019-07-21 09:00:00 28.3 15 Nordeste 30 Nordeste 0 1016.5 2.2 52
2019-07-21 08:00:00 26.2 20 Nordeste 30 Nordeste 0 1015.7 1 64
2019-07-21 07:00:00 25 19 Nordeste 35 Nordeste 0 1015 0.4 74
2019-07-21 06:00:00 25.2 24 Nordeste 33 Nordeste 0 1014.3 -0.5 72
2019-07-21 05:00:00 24.7 17 Nordeste 24 Nordeste 0 1014.7 -0.6 71
2019-07-21 04:00:00 25 19 Nordeste 30 Nordeste 0 1014.6 -1.4 74
2019-07-21 03:00:00 24.7 15 Nordeste 24 Nordeste 0 1014.8 -1.1 76
2019-07-21 02:00:00 25.2 17 Nordeste 22 Nordeste 0 1015.3 -0.1 70
2019-07-21 01:00:00 25.6 14 Nordeste 21 Nordeste 0 1016 1.5 74
2019-07-21 00:00:00 25.7 12 Este 18 Este 0 1015.9 2.3 73
2019-07-20 23:00:00 25.9 13 Nordeste 24 Nordeste 0 1015.4 2.5 73
2019-07-20 22:00:00 26.2 16 Este 28 Este 0 1014.5 1.7 73
2019-07-20 21:00:00 26.6 20 Este 32 Nordeste 0 1013.6 0.7 70
2019-07-20 20:00:00 27.4 22 Nordeste 35 Nordeste 0 1012.9 -0.4 67
2019-07-20 19:00:00 27.8 26 Este 37 Este 0 1012.8 -0.8 66
2019-07-20 18:00:00 28.4 28 Este 37 Este 0 1012.9 -1 65
2019-07-20 17:00:00 28.7 28 Este 37 Nordeste 0 1013.3 -0.3 64
2019-07-20 16:00:00 28.8 28 Este 37 Este 0 1013.6 -0.3 64
2019-07-20 15:00:00 28.8 26 Nordeste 37 Nordeste 0 1013.9 0.1 64
2019-07-20 14:00:00 28 29 Este 39 Este 0 1013.6 0.3 67
2019-07-20 13:00:00 28.2 26 Este 37 Nordeste 0 1013.9 1.2 65
2019-07-20 12:00:00 28.2 25 Este 35 Este 0 1013.8 1.4 66
2019-07-20 11:00:00 28.1 25 Este 35 Nordeste 0 1013.3 1.5 66
2019-07-20 10:00:00 26.8 28 Nordeste 42 Este 0 1012.7 0.8 71
2019-07-20 09:00:00 26.9 23 Nordeste 33 Nordeste 0 1012.4 0.4 71
2019-07-20 08:00:00 25.9 24 Nordeste 33 Nordeste 0 1011.8 0.1 73
2019-07-20 07:00:00 25.2 13 Nordeste 26 Nordeste 0 1011.9 0.1 70
2019-07-20 06:00:00 25.2 15 Nordeste 22 Nordeste 0 1012 -0.3 69
2019-07-20 05:00:00 24.6 13 Nordeste 22 Nordeste 0 1011.7 -0.8 72
2019-07-20 04:00:00 25.2 15 Nordeste 22 Nordeste 0 1011.8 -1 73
2019-07-20 03:00:00 25.1 13 Este -- -- -- 1012.3 -0.5 75
2019-07-20 02:00:00 25.2 14 Este 22 Este 0 1012.5 -0.3 75
2019-07-20 01:00:00 25.4 16 Este 26 Este 0 1012.8 0.5 73
2019-07-20 00:00:00 25.6 14 Este 24 Norte 0 1012.8 0.4 72
2019-07-19 23:00:00 25.6 15 Este 30 Este 0 1012.8 0.5 73
2019-07-19 22:00:00 25.8 18 Este 26 Este 0 1012.3 -0.3 71
2019-07-19 21:00:00 26.4 17 Este 28 Este 0 1012.4 -0.7 68
2019-07-19 20:00:00 27.2 21 Nordeste 30 Este 0 1012.3 -1.1 66
2019-07-19 19:00:00 28.1 19 Este 28 Este 0 1012.6 -1.2 62
2019-07-19 18:00:00 28.3 19 Este 30 Este 0 1013.1 -1.3 59
2019-07-19 17:00:00 28.7 22 Este 30 Norte 0 1013.4 -1.3 58
2019-07-19 16:00:00 29 19 Este 32 Nordeste 0 1013.8 -1.2 60
2019-07-19 15:00:00 28.6 21 Este 30 Este 0 1014.4 -0.7 63
2019-07-19 14:00:00 28.6 20 Este 30 Este 0 1014.7 -0.2 63
2019-07-19 13:00:00 28.3 18 Este 26 Este 0 1015 0.2 63
2019-07-19 12:00:00 28 18 Este 26 Norte 0 1015.1 0.7 64
2019-07-19 11:00:00 27.6 17 Este 24 Este 0 1014.9 1.3 66
2019-07-19 10:00:00 26.9 14 Este 21 Este 0 1014.8 1.3 69
2019-07-19 09:00:00 26.2 15 Este 22 Este 0 1014.4 0.8 72
2019-07-19 08:00:00 24.6 12 Nordeste 18 Norte 0 1013.6 0 77
2019-07-19 07:00:00 21.9 6 Norte 13 Norte 0 1013.5 -0.2 83
2019-07-19 06:00:00 21.8 8 Norte 11 Norte 0 1013.6 -0.4 82
2019-07-19 05:00:00 22.1 8 Norte 11 Norte 0 1013.6 -0.5 80
2019-07-19 04:00:00 22.1 8 Norte 11 Norte 0 1013.7 -0.1 79
2019-07-19 03:00:00 22.2 8 Norte -- -- -- 1014 0.3 77
2019-07-19 02:00:00 22.7 6 Norte 8 Norte 0 1014.1 0.4 75
2019-07-19 01:00:00 24 3 Sudeste 9 Sudeste 0 1013.8 0.7 72
2019-07-19 00:00:00 24.2 5 Sudeste 13 Este 0 1013.7 1.1 72